Time;durP1;ratioP1;P1;durP2;ratioP2;P2;SDS_P1;SDS_P2;PMS_P1;PMS_P2;Temp;Humidity;BMP_temperature;BMP_pressure;BME280_temperature;BME280_humidity;BME280_pressure;Samples;Min_cycle;Max_cycle;Signal;HPM_P1;HPM_P2
2022/03/04 00:00:58;;;;;;;21.90;10.15;;;1.70;95.80;;;;;;4965853;28;20077;-57
2022/03/04 00:03:24;;;;;;;20.50;11.15;;;1.60;96.40;;;;;;4964604;28;20027;-56
2022/03/04 00:05:49;;;;;;;19.92;10.45;;;1.60;96.40;;;;;;4941494;28;20572;-58
2022/03/04 00:08:15;;;;;;;23.30;11.55;;;1.60;96.70;;;;;;4959361;28;20023;-55
2022/03/04 00:10:40;;;;;;;22.88;10.80;;;1.70;96.50;;;;;;4967923;28;20088;-58
2022/03/04 00:13:06;;;;;;;22.17;10.40;;;1.70;96.40;;;;;;4970962;28;20085;-57
2022/03/04 00:15:32;;;;;;;19.60;10.35;;;1.70;96.50;;;;;;4961014;28;20039;-55
2022/03/04 00:17:58;;;;;;;20.05;11.02;;;1.70;96.40;;;;;;4939333;28;20039;-59
2022/03/04 00:20:23;;;;;;;23.95;10.85;;;1.70;96.60;;;;;;4965867;28;20027;-57
2022/03/04 00:22:49;;;;;;;19.45;10.73;;;1.60;96.70;;;;;;4966148;28;20049;-55
2022/03/04 00:25:15;;;;;;;22.10;10.95;;;1.50;97.00;;;;;;4966743;28;20088;-54
2022/03/04 00:27:40;;;;;;;19.02;10.40;;;1.50;97.20;;;;;;4966803;28;20041;-58
2022/03/04 00:30:07;;;;;;;22.25;11.23;;;1.40;97.60;;;;;;4961146;28;20031;-58
2022/03/04 00:32:34;;;;;;;19.95;10.65;;;1.30;98.00;;;;;;4960201;28;20023;-57
2022/03/04 00:34:59;;;;;;;25.65;11.43;;;1.40;98.00;;;;;;4954061;28;20094;-57
2022/03/04 00:37:25;;;;;;;20.70;10.07;;;1.40;98.10;;;;;;4967277;28;20034;-57
2022/03/04 00:39:50;;;;;;;18.70;10.00;;;1.50;97.90;;;;;;4970734;28;20033;-56
2022/03/04 00:42:16;;;;;;;21.10;11.63;;;1.60;97.80;;;;;;4970844;28;20030;-54
2022/03/04 00:44:42;;;;;;;22.02;10.93;;;1.50;97.90;;;;;;4969398;28;20030;-56
2022/03/04 00:47:07;;;;;;;19.83;10.60;;;1.50;97.90;;;;;;4970001;28;20173;-56
2022/03/04 00:49:34;;;;;;;22.13;11.05;;;1.60;97.90;;;;;;4962635;28;20034;-58
2022/03/04 00:52:00;;;;;;;20.00;10.85;;;1.60;97.90;;;;;;4968770;28;20019;-56
2022/03/04 00:54:25;;;;;;;18.58;10.45;;;1.60;97.90;;;;;;4969492;28;20027;-54
2022/03/04 00:56:51;;;;;;;20.55;10.73;;;1.60;97.70;;;;;;4957103;28;20030;-55
2022/03/04 00:59:16;;;;;;;23.05;10.73;;;1.50;98.00;;;;;;4966156;28;20130;-57
2022/03/04 01:01:42;;;;;;;20.90;10.98;;;1.60;97.90;;;;;;4952442;28;20049;-58
2022/03/04 01:04:07;;;;;;;22.85;11.05;;;1.60;97.90;;;;;;4966878;28;20042;-57
2022/03/04 01:06:34;;;;;;;23.27;11.35;;;1.60;97.90;;;;;;4969495;28;20167;-57
2022/03/04 01:08:59;;;;;;;24.90;12.45;;;1.60;97.80;;;;;;4964188;28;20028;-58
2022/03/04 01:11:25;;;;;;;23.38;10.77;;;1.70;97.80;;;;;;4960611;28;20039;-56
2022/03/04 01:13:51;;;;;;;21.38;11.13;;;1.70;97.80;;;;;;4954141;28;20460;-56
2022/03/04 01:16:16;;;;;;;21.92;11.40;;;1.70;97.70;;;;;;4956954;28;20023;-58
2022/03/04 01:18:42;;;;;;;23.00;11.10;;;1.70;97.80;;;;;;4945335;28;20556;-55
2022/03/04 01:21:08;;;;;;;22.85;11.15;;;1.70;97.80;;;;;;4961122;28;20070;-56
2022/03/04 01:23:34;;;;;;;23.75;12.07;;;1.70;97.80;;;;;;4958483;28;20042;-57
2022/03/04 01:26:03;;;;;;;28.92;10.50;;;1.70;97.80;;;;;;4960751;28;20046;-56
2022/03/04 01:28:29;;;;;;;19.10;10.65;;;1.70;97.80;;;;;;4959044;28;20572;-59
2022/03/04 01:30:54;;;;;;;21.38;11.40;;;1.70;97.80;;;;;;4961835;28;20098;-57
2022/03/04 01:33:20;;;;;;;22.17;10.90;;;1.80;97.70;;;;;;4959955;28;20019;-56
2022/03/04 01:35:46;;;;;;;23.52;10.85;;;1.80;97.70;;;;;;4959172;28;20397;-58
2022/03/04 01:38:11;;;;;;;18.15;10.57;;;1.80;97.60;;;;;;4955149;28;20037;-55
2022/03/04 01:40:37;;;;;;;19.88;10.68;;;1.80;97.70;;;;;;4968229;28;20055;-55
2022/03/04 01:43:03;;;;;;;22.90;11.02;;;1.70;97.70;;;;;;4970142;28;20035;-57
2022/03/04 01:45:28;;;;;;;19.55;10.88;;;1.70;97.80;;;;;;4967115;28;20042;-58
2022/03/04 01:47:54;;;;;;;19.58;10.88;;;1.60;97.90;;;;;;4958396;28;20043;-58
2022/03/04 01:50:20;;;;;;;29.73;11.55;;;1.50;98.00;;;;;;4972313;28;20095;-55
2022/03/04 01:52:45;;;;;;;22.40;11.07;;;1.50;98.20;;;;;;4972004;28;20504;-53
2022/03/04 01:55:11;;;;;;;24.35;11.52;;;1.50;98.40;;;;;;4967973;28;20036;-55
2022/03/04 01:57:38;;;;;;;22.63;11.32;;;1.50;98.30;;;;;;4968686;28;20032;-56
2022/03/04 02:00:07;;;;;;;28.73;11.40;;;1.60;98.40;;;;;;4967878;28;20037;-58
2022/03/04 02:02:32;;;;;;;27.40;11.82;;;1.60;98.10;;;;;;4971908;28;20023;-53
2022/03/04 02:04:58;;;;;;;18.73;9.75;;;1.60;98.00;;;;;;4972246;28;20484;-56
2022/03/04 02:07:23;;;;;;;20.83;10.70;;;1.60;98.10;;;;;;4966257;28;20030;-55
2022/03/04 02:09:49;;;;;;;23.58;11.30;;;1.70;97.90;;;;;;4972041;28;20043;-57
2022/03/04 02:12:14;;;;;;;21.77;11.00;;;1.60;98.00;;;;;;4972443;28;20039;-56
2022/03/04 02:14:40;;;;;;;22.73;11.25;;;1.60;98.10;;;;;;4969088;28;20027;-56
2022/03/04 02:17:06;;;;;;;23.75;12.60;;;1.50;98.30;;;;;;4953227;28;20565;-54
2022/03/04 02:19:31;;;;;;;24.85;12.50;;;1.40;98.50;;;;;;4970866;28;20035;-58
2022/03/04 02:22:00;;;;;;;25.58;12.68;;;1.40;98.40;;;;;;4958490;28;20023;-53
2022/03/04 02:24:28;;;;;;;22.08;10.70;;;1.50;98.40;;;;;;4965944;28;20030;-55
2022/03/04 02:26:56;;;;;;;24.25;11.82;;;1.40;98.50;;;;;;4970807;28;20436;-59
2022/03/04 02:29:22;;;;;;;27.35;12.10;;;1.40;98.70;;;;;;4970849;28;20039;-56
2022/03/04 02:31:49;;;;;;;22.00;11.98;;;1.40;98.70;;;;;;4970475;28;20027;-59
2022/03/04 02:34:15;;;;;;;22.25;10.70;;;1.30;98.80;;;;;;4971717;28;20390;-58
2022/03/04 02:36:41;;;;;;;23.90;11.30;;;1.30;98.80;;;;;;4970314;28;20027;-57
2022/03/04 02:39:07;;;;;;;24.67;11.35;;;1.30;99.10;;;;;;4972796;28;20026;-57
2022/03/04 02:41:34;;;;;;;23.00;11.82;;;1.30;99.20;;;;;;4967361;28;20041;-58
2022/03/04 02:44:00;;;;;;;21.77;11.32;;;1.30;99.20;;;;;;4970862;28;20657;-57
2022/03/04 02:46:26;;;;;;;20.45;11.05;;;1.20;99.20;;;;;;4971610;28;20035;-55
2022/03/04 02:48:51;;;;;;;25.83;12.50;;;1.20;99.40;;;;;;4968469;28;20094;-55
2022/03/04 02:51:17;;;;;;;22.25;11.48;;;1.20;99.50;;;;;;4963093;28;20528;-57
2022/03/04 02:53:42;;;;;;;22.42;12.02;;;1.10;99.70;;;;;;4968915;28;20078;-57
2022/03/04 02:56:08;;;;;;;26.50;11.57;;;1.10;99.80;;;;;;4969308;28;20035;-54
2022/03/04 02:58:34;;;;;;;20.92;11.10;;;1.10;99.90;;;;;;4971553;28;20045;-60
2022/03/04 03:00:59;;;;;;;26.70;10.60;;;1.00;99.90;;;;;;4969948;28;20023;-57
2022/03/04 03:03:25;;;;;;;26.80;12.40;;;1.00;99.90;;;;;;4946082;28;20057;-58
2022/03/04 03:05:50;;;;;;;22.42;10.55;;;1.00;99.90;;;;;;4964533;28;20401;-56
2022/03/04 03:08:16;;;;;;;24.40;11.88;;;1.00;99.90;;;;;;4970989;28;20408;-56
2022/03/04 03:10:42;;;;;;;23.70;11.93;;;1.00;99.90;;;;;;4969962;28;20110;-55
2022/03/04 03:13:07;;;;;;;22.67;10.77;;;1.00;99.90;;;;;;4968515;28;20018;-55
2022/03/04 03:15:33;;;;;;;20.23;11.50;;;1.00;99.90;;;;;;4963880;28;20445;-56
2022/03/04 03:17:58;;;;;;;24.50;11.77;;;1.00;99.90;;;;;;4945934;28;20039;-54
2022/03/04 03:20:24;;;;;;;21.10;11.45;;;0.90;99.90;;;;;;4968208;28;20481;-55
2022/03/04 03:22:50;;;;;;;19.80;11.48;;;1.00;99.90;;;;;;4970547;28;20064;-59
2022/03/04 03:25:16;;;;;;;22.27;12.02;;;0.90;99.90;;;;;;4970933;28;20247;-56
2022/03/04 03:27:41;;;;;;;21.08;10.85;;;0.90;99.90;;;;;;4970505;28;20031;-57
2022/03/04 03:30:08;;;;;;;23.03;11.70;;;0.80;99.90;;;;;;4971458;28;20477;-58
2022/03/04 03:32:34;;;;;;;22.77;11.80;;;0.80;99.90;;;;;;4961983;28;20031;-57
2022/03/04 03:34:59;;;;;;;23.30;11.77;;;0.70;99.90;;;;;;4965245;28;20086;-56
2022/03/04 03:37:25;;;;;;;28.23;15.00;;;0.50;99.90;;;;;;4970725;28;20023;-57
2022/03/04 03:39:51;;;;;;;22.20;12.07;;;0.40;99.90;;;;;;4969606;28;20034;-58
2022/03/04 03:42:17;;;;;;;23.93;11.83;;;0.20;99.90;;;;;;4966835;28;20026;-58
2022/03/04 03:44:43;;;;;;;23.90;13.23;;;0.10;99.90;;;;;;4967973;28;20034;-56
2022/03/04 03:47:09;;;;;;;23.20;12.03;;;0.00;99.90;;;;;;4969872;28;20481;-55
2022/03/04 03:49:35;;;;;;;23.77;11.77;;;0.00;99.90;;;;;;4966422;28;20053;-55
2022/03/04 03:52:01;;;;;;;23.40;11.70;;;-0.10;99.90;;;;;;4961316;28;20022;-56
2022/03/04 03:54:27;;;;;;;29.10;12.80;;;0.00;99.90;;;;;;4967882;28;20046;-55
2022/03/04 03:56:53;;;;;;;26.57;12.87;;;0.00;99.90;;;;;;4969893;28;20061;-58
2022/03/04 03:59:18;;;;;;;20.83;11.40;;;-0.10;99.90;;;;;;4969700;28;20042;-55
2022/03/04 04:01:44;;;;;;;27.47;11.87;;;-0.10;99.90;;;;;;4965742;28;20463;-58
2022/03/04 04:04:12;;;;;;;29.50;11.83;;;-0.10;99.90;;;;;;4959480;28;20093;-57
2022/03/04 04:06:39;;;;;;;30.50;12.77;;;-0.10;99.90;;;;;;4970394;28;20035;-59
2022/03/04 04:09:05;;;;;;;25.20;12.50;;;-0.10;99.90;;;;;;4971273;28;20030;-55
2022/03/04 04:11:35;;;;;;;23.77;12.00;;;-0.10;99.90;;;;;;4969794;28;20026;-57
2022/03/04 04:14:08;;;;;;;22.80;12.83;;;-0.10;99.90;;;;;;4969900;28;20408;-54
2022/03/04 04:16:35;;;;;;;22.92;12.57;;;0.00;99.90;;;;;;4964868;28;20486;-54
2022/03/04 04:19:01;;;;;;;26.70;12.83;;;0.00;99.90;;;;;;4953925;28;20043;-59
2022/03/04 04:21:27;;;;;;;22.43;12.50;;;-0.10;99.90;;;;;;4963330;28;20029;-56
2022/03/04 04:23:54;;;;;;;26.03;12.43;;;-0.20;99.90;;;;;;4963624;28;20121;-56
2022/03/04 04:26:20;;;;;;;23.20;10.77;;;-0.30;99.90;;;;;;4963671;28;20054;-58
2022/03/04 04:28:46;;;;;;;26.20;12.93;;;-0.30;99.90;;;;;;4962468;28;20090;-56
2022/03/04 04:31:12;;;;;;;25.03;12.23;;;-0.40;99.90;;;;;;4968894;28;20388;-56
2022/03/04 04:33:37;;;;;;;25.07;12.30;;;-0.40;99.90;;;;;;4965662;28;20032;-58
2022/03/04 04:36:03;;;;;;;24.87;12.30;;;-0.30;99.90;;;;;;4960445;28;20023;-58
2022/03/04 04:38:29;;;;;;;25.77;12.73;;;-0.30;99.90;;;;;;4964632;28;20028;-60
2022/03/04 04:40:54;;;;;;;25.93;12.23;;;-0.30;99.90;;;;;;4963886;28;20035;-57
2022/03/04 04:43:20;;;;;;;29.23;12.90;;;-0.30;99.90;;;;;;4966588;28;20081;-59
2022/03/04 04:45:46;;;;;;;21.77;12.43;;;-0.30;99.90;;;;;;4966831;28;20027;-58
2022/03/04 04:48:11;;;;;;;27.17;12.70;;;-0.30;99.90;;;;;;4968005;28;20054;-56
2022/03/04 04:50:37;;;;;;;22.73;11.20;;;-0.30;99.90;;;;;;4966317;28;20429;-59
2022/03/04 04:53:03;;;;;;;24.93;12.60;;;-0.30;99.90;;;;;;4966550;28;20035;-58
2022/03/04 04:55:29;;;;;;;28.03;11.97;;;-0.30;99.90;;;;;;4961553;28;21308;-57
2022/03/04 04:57:55;;;;;;;25.03;12.93;;;-0.30;99.90;;;;;;4967399;28;20035;-55
2022/03/04 05:00:20;;;;;;;27.73;12.33;;;-0.30;99.90;;;;;;4967045;28;20066;-58
2022/03/04 05:02:46;;;;;;;24.00;12.83;;;-0.40;99.90;;;;;;4965837;28;20098;-55
2022/03/04 05:05:12;;;;;;;27.00;11.87;;;-0.40;99.90;;;;;;4962225;28;20027;-54
2022/03/04 05:07:38;;;;;;;27.67;12.27;;;-0.40;99.90;;;;;;4962211;28;20042;-55
2022/03/04 05:10:05;;;;;;;21.33;11.83;;;-0.40;99.90;;;;;;4968837;28;20114;-59
2022/03/04 05:12:30;;;;;;;20.93;11.63;;;-0.40;99.90;;;;;;4962675;28;20031;-56
2022/03/04 05:14:56;;;;;;;23.27;12.73;;;-0.50;99.90;;;;;;4966926;28;20034;-57
2022/03/04 05:17:22;;;;;;;25.13;12.03;;;-0.50;99.90;;;;;;4947208;28;20043;-56
2022/03/04 05:19:47;;;;;;;23.37;12.13;;;-0.50;99.90;;;;;;4971677;28;20042;-59
2022/03/04 05:22:13;;;;;;;21.13;11.53;;;-0.40;99.90;;;;;;4972892;28;20023;-58
2022/03/04 05:24:38;;;;;;;24.43;11.20;;;-0.40;99.90;;;;;;4971528;28;20031;-56
2022/03/04 05:27:04;;;;;;;28.20;12.53;;;-0.30;99.90;;;;;;4968813;28;20362;-57
2022/03/04 05:29:29;;;;;;;24.87;11.50;;;-0.30;99.90;;;;;;4972259;28;20107;-56
2022/03/04 05:31:55;;;;;;;21.27;10.87;;;-0.20;99.90;;;;;;4972308;28;20023;-58
2022/03/04 05:34:20;;;;;;;24.20;12.57;;;-0.20;99.90;;;;;;4970824;28;20027;-58
2022/03/04 05:36:46;;;;;;;24.30;11.97;;;-0.30;99.90;;;;;;4969566;28;20023;-55
2022/03/04 05:39:12;;;;;;;21.10;11.77;;;-0.30;99.90;;;;;;4972846;28;20039;-59
2022/03/04 05:41:37;;;;;;;29.80;13.53;;;-0.30;99.90;;;;;;4965775;28;20117;-56
2022/03/04 05:44:04;;;;;;;29.50;12.97;;;-0.30;99.90;;;;;;4970405;28;20030;-55
2022/03/04 05:46:30;;;;;;;26.93;12.50;;;-0.30;99.90;;;;;;4968699;28;20207;-57
2022/03/04 05:48:56;;;;;;;29.67;14.70;;;-0.30;99.90;;;;;;4971400;28;20023;-58
2022/03/04 05:51:21;;;;;;;26.77;13.40;;;-0.40;99.90;;;;;;4964145;28;20166;-59
2022/03/04 05:53:49;;;;;;;28.37;12.90;;;-0.50;99.90;;;;;;4972683;28;20074;-58
2022/03/04 05:56:15;;;;;;;30.10;13.27;;;-0.60;99.90;;;;;;4965832;28;20578;-59
2022/03/04 05:58:41;;;;;;;27.27;12.97;;;-0.60;99.90;;;;;;4965696;28;20074;-58
2022/03/04 06:01:06;;;;;;;28.90;12.87;;;-0.60;99.90;;;;;;4970245;28;20186;-56
2022/03/04 06:03:33;;;;;;;27.60;12.37;;;-0.60;99.90;;;;;;4961962;28;20488;-58
2022/03/04 06:05:58;;;;;;;23.43;11.90;;;-0.70;99.90;;;;;;4961661;28;20027;-58
2022/03/04 06:08:24;;;;;;;23.90;11.97;;;-0.70;99.90;;;;;;4970333;28;20050;-59
2022/03/04 06:10:50;;;;;;;27.87;12.33;;;-0.70;99.90;;;;;;4972318;28;20035;-59
2022/03/04 06:13:15;;;;;;;28.87;12.30;;;-0.70;99.90;;;;;;4971629;28;20034;-59
2022/03/04 06:15:41;;;;;;;29.63;13.03;;;-0.70;99.90;;;;;;4965938;28;20302;-57
2022/03/04 06:18:07;;;;;;;30.23;12.40;;;-0.70;99.90;;;;;;4954175;28;20038;-56
2022/03/04 06:20:32;;;;;;;23.63;11.93;;;-0.70;99.90;;;;;;4961639;28;20483;-59
2022/03/04 06:22:58;;;;;;;27.40;14.07;;;-0.70;99.90;;;;;;4967687;28;20027;-58
2022/03/04 06:25:24;;;;;;;25.17;11.53;;;-0.60;99.90;;;;;;4968251;28;20032;-53
2022/03/04 06:27:51;;;;;;;28.87;13.50;;;-0.60;99.90;;;;;;4969394;28;20097;-54
2022/03/04 06:30:16;;;;;;;24.90;12.57;;;-0.60;99.90;;;;;;4961873;28;20023;-56
2022/03/04 06:32:42;;;;;;;30.63;13.57;;;-0.50;99.90;;;;;;4970497;28;20037;-54
2022/03/04 06:35:08;;;;;;;24.87;11.87;;;-0.50;99.90;;;;;;4966124;28;20062;-55
2022/03/04 06:37:33;;;;;;;29.37;11.90;;;-0.50;99.90;;;;;;4968138;28;20023;-56
2022/03/04 06:39:59;;;;;;;29.53;13.10;;;-0.60;99.90;;;;;;4968700;28;20062;-57
2022/03/04 06:42:24;;;;;;;28.17;12.50;;;-0.50;99.90;;;;;;4961594;28;20046;-59
2022/03/04 06:44:50;;;;;;;28.57;13.27;;;-0.60;99.90;;;;;;4967934;28;20085;-57
2022/03/04 06:47:15;;;;;;;29.77;14.20;;;-0.50;99.90;;;;;;4959351;28;20027;-57
2022/03/04 06:49:41;;;;;;;24.97;12.33;;;-0.50;99.90;;;;;;4963803;28;20038;-57
2022/03/04 06:52:07;;;;;;;28.10;12.73;;;-0.50;99.90;;;;;;4964756;28;20031;-57
2022/03/04 06:54:33;;;;;;;29.47;13.03;;;-0.40;99.90;;;;;;4964224;28;20026;-58
2022/03/04 06:56:59;;;;;;;37.07;16.03;;;-0.30;99.90;;;;;;4960824;28;20039;-56
2022/03/04 06:59:25;;;;;;;25.90;12.43;;;-0.30;99.90;;;;;;4963205;28;20571;-58
2022/03/04 07:01:50;;;;;;;27.97;14.03;;;-0.30;99.90;;;;;;4964758;28;20118;-57
2022/03/04 07:04:16;;;;;;;34.47;14.33;;;-0.20;99.90;;;;;;4964906;28;20023;-58
2022/03/04 07:06:41;;;;;;;32.50;14.43;;;-0.20;99.90;;;;;;4967663;28;20055;-57
2022/03/04 07:09:07;;;;;;;25.93;13.20;;;-0.10;99.90;;;;;;4963546;28;20038;-58
2022/03/04 07:11:33;;;;;;;24.57;13.27;;;-0.10;99.90;;;;;;4961600;28;20026;-57
2022/03/04 07:13:58;;;;;;;26.17;13.10;;;0.00;99.90;;;;;;4964587;28;20504;-58
2022/03/04 07:16:24;;;;;;;23.02;12.07;;;0.10;99.90;;;;;;4967333;28;20041;-57
2022/03/04 07:18:50;;;;;;;24.00;12.43;;;0.20;99.90;;;;;;4970287;28;20073;-57
2022/03/04 07:21:16;;;;;;;25.83;12.85;;;0.30;99.90;;;;;;4982419;28;20465;-58
2022/03/04 07:23:41;;;;;;;25.17;12.40;;;0.50;99.90;;;;;;4977230;28;20916;-55
2022/03/04 07:26:09;;;;;;;25.30;13.30;;;0.60;99.90;;;;;;4986170;28;20026;-59
2022/03/04 07:28:35;;;;;;;24.23;12.18;;;0.70;99.90;;;;;;4980961;28;20066;-58
2022/03/04 07:31:00;;;;;;;22.38;12.75;;;0.80;99.90;;;;;;4981257;28;20031;-58
2022/03/04 07:33:26;;;;;;;29.05;13.40;;;0.90;99.90;;;;;;4981497;28;20039;-59
2022/03/04 07:35:51;;;;;;;25.10;12.13;;;1.00;99.90;;;;;;4984670;28;20046;-56
2022/03/04 07:38:17;;;;;;;30.90;12.20;;;1.10;99.90;;;;;;4983778;28;20054;-57
2022/03/04 07:40:45;;;;;;;26.63;12.18;;;1.20;99.90;;;;;;4979358;28;20031;-58
2022/03/04 07:43:11;;;;;;;27.30;12.48;;;1.30;99.90;;;;;;4983280;28;20471;-55
2022/03/04 07:45:37;;;;;;;25.55;12.13;;;1.40;99.90;;;;;;4981636;28;20042;-57
2022/03/04 07:48:03;;;;;;;27.98;12.73;;;1.50;99.90;;;;;;4986896;28;20030;-57
2022/03/04 07:50:28;;;;;;;23.73;12.70;;;1.70;99.90;;;;;;4987009;28;20065;-52
2022/03/04 07:52:54;;;;;;;28.35;13.55;;;1.80;99.90;;;;;;4983721;28;20044;-54
2022/03/04 07:55:20;;;;;;;22.50;12.82;;;2.00;99.90;;;;;;4978149;28;20019;-57
2022/03/04 07:57:46;;;;;;;30.75;13.18;;;2.00;99.90;;;;;;4987529;28;20041;-55
2022/03/04 08:00:15;;;;;;;25.23;13.95;;;2.10;99.90;;;;;;4981717;28;20803;-55
2022/03/04 08:02:41;;;;;;;28.42;14.25;;;2.20;99.90;;;;;;4983553;28;20118;-56
2022/03/04 08:05:08;;;;;;;27.80;13.35;;;2.30;99.90;;;;;;4983747;28;20060;-56
2022/03/04 08:07:35;;;;;;;26.65;13.75;;;2.40;99.90;;;;;;4990076;28;20030;-57
2022/03/04 08:10:01;;;;;;;26.35;14.15;;;2.40;99.90;;;;;;4988499;28;20046;-57
2022/03/04 08:12:26;;;;;;;29.20;14.27;;;2.50;99.90;;;;;;4980545;28;20085;-56
2022/03/04 08:14:52;;;;;;;27.40;14.43;;;2.50;99.90;;;;;;4979645;28;20029;-57
2022/03/04 08:17:17;;;;;;;29.05;14.20;;;2.60;99.90;;;;;;4959280;28;21228;-59
2022/03/04 08:19:43;;;;;;;22.83;13.15;;;2.60;99.90;;;;;;4986457;28;20407;-58
2022/03/04 08:22:09;;;;;;;26.60;14.23;;;2.70;99.90;;;;;;4979153;28;20050;-58
2022/03/04 08:24:34;;;;;;;25.02;13.75;;;2.80;99.90;;;;;;4978827;28;20093;-58
2022/03/04 08:27:01;;;;;;;30.75;14.32;;;2.80;99.90;;;;;;4981735;28;20061;-57
2022/03/04 08:29:27;;;;;;;36.15;14.88;;;2.90;99.90;;;;;;4983164;28;20085;-56
2022/03/04 08:31:52;;;;;;;28.55;14.50;;;3.00;99.90;;;;;;4980881;28;20429;-57
2022/03/04 08:34:18;;;;;;;26.25;13.80;;;3.10;99.90;;;;;;4980986;28;20030;-58
2022/03/04 08:36:44;;;;;;;29.13;15.50;;;3.20;99.90;;;;;;4981322;28;20038;-52
2022/03/04 08:39:09;;;;;;;28.65;15.00;;;3.30;99.90;;;;;;4982806;28;20030;-56
2022/03/04 08:41:35;;;;;;;28.15;15.30;;;3.30;99.90;;;;;;4981635;28;20046;-56
2022/03/04 08:44:02;;;;;;;27.58;14.73;;;3.30;99.90;;;;;;4983247;28;20037;-56
2022/03/04 08:46:28;;;;;;;24.13;14.00;;;3.40;99.90;;;;;;4983093;28;20043;-56
2022/03/04 08:48:54;;;;;;;30.50;15.63;;;3.50;99.90;;;;;;4983369;28;20093;-58
2022/03/04 08:51:24;;;;;;;30.10;15.15;;;3.50;99.90;;;;;;4979084;28;20143;-56
2022/03/04 08:53:51;;;;;;;28.25;15.13;;;3.60;99.70;;;;;;4980330;28;20117;-57
2022/03/04 08:56:17;;;;;;;29.95;15.25;;;3.60;99.90;;;;;;4978462;28;20030;-59
2022/03/04 08:58:42;;;;;;;25.02;14.18;;;3.70;99.80;;;;;;4989830;28;20103;-56
2022/03/04 09:01:08;;;;;;;28.15;15.10;;;3.80;99.90;;;;;;5003040;23;20042;-60
2022/03/04 09:03:33;;;;;;;31.88;16.25;;;3.90;99.50;;;;;;4988208;28;20114;-59
2022/03/04 09:05:59;;;;;;;33.30;16.95;;;4.00;99.40;;;;;;4989786;28;20022;-60
2022/03/04 09:08:24;;;;;;;27.83;15.52;;;4.10;99.90;;;;;;4980788;28;20041;-59
2022/03/04 09:10:50;;;;;;;32.78;16.55;;;4.20;99.90;;;;;;4975000;28;20023;-60
2022/03/04 09:13:16;;;;;;;30.65;17.00;;;4.20;99.40;;;;;;4979178;28;20019;-58
2022/03/04 09:15:41;;;;;;;32.40;18.00;;;4.40;98.90;;;;;;4970249;28;20154;-56
2022/03/04 09:18:07;;;;;;;30.60;16.17;;;4.50;98.40;;;;;;4956338;28;20057;-60
2022/03/04 09:20:32;;;;;;;34.72;16.60;;;4.60;99.00;;;;;;4965259;28;20066;-60
2022/03/04 09:22:58;;;;;;;31.30;16.00;;;4.80;98.40;;;;;;4951164;28;20042;-61
2022/03/04 09:25:26;;;;;;;33.95;17.67;;;5.20;97.70;;;;;;4967584;28;20030;-60
2022/03/04 09:27:53;;;;;;;32.92;16.88;;;5.90;97.50;;;;;;4969406;28;20062;-60
2022/03/04 09:30:18;;;;;;;29.30;17.48;;;6.70;96.40;;;;;;4968955;28;20027;-61
2022/03/04 09:32:45;;;;;;;26.02;15.43;;;7.30;94.60;;;;;;4963900;28;20034;-60
2022/03/04 09:35:11;;;;;;;32.35;18.42;;;7.60;94.20;;;;;;4966977;28;20089;-61
2022/03/04 09:37:36;;;;;;;29.58;17.55;;;8.00;93.00;;;;;;4964869;28;20026;-60
2022/03/04 09:40:04;;;;;;;32.95;18.58;;;8.50;92.20;;;;;;4968690;28;20035;-59
2022/03/04 09:42:32;;;;;;;29.70;18.48;;;8.80;91.00;;;;;;4959679;28;20331;-60
2022/03/04 09:44:58;;;;;;;27.88;17.15;;;9.10;91.10;;;;;;4962291;28;20038;-60
2022/03/04 09:47:24;;;;;;;29.73;18.88;;;9.50;90.50;;;;;;4963752;28;20054;-60
2022/03/04 09:49:51;;;;;;;29.05;18.50;;;9.90;88.30;;;;;;4962829;28;20481;-61
2022/03/04 09:52:17;;;;;;;30.33;19.13;;;10.00;88.30;;;;;;4965754;28;20027;-61
2022/03/04 09:54:46;;;;;;;29.85;18.17;;;9.90;89.60;;;;;;4966313;28;20023;-61
2022/03/04 09:57:12;;;;;;;28.92;18.83;;;10.20;86.10;;;;;;4967321;28;20023;-60
2022/03/04 09:59:37;;;;;;;28.77;19.50;;;10.60;84.00;;;;;;4962246;28;20512;-60
2022/03/04 10:02:03;;;;;;;26.15;17.98;;;10.80;83.40;;;;;;4968583;28;20062;-60
2022/03/04 10:04:31;;;;;;;28.85;18.92;;;10.70;83.00;;;;;;4969931;28;20028;-61
2022/03/04 10:06:57;;;;;;;26.80;17.92;;;11.00;83.10;;;;;;4969681;28;20031;-59
2022/03/04 10:09:35;;;;;;;28.17;18.30;;;11.40;81.70;;;;;;4972202;28;20043;-60
2022/03/04 10:12:03;;;;;;;33.28;18.90;;;11.40;80.40;;;;;;4971271;28;20035;-60
2022/03/04 10:14:28;;;;;;;27.40;18.75;;;11.70;79.20;;;;;;4970147;28;20467;-60
2022/03/04 10:16:57;;;;;;;31.88;18.88;;;11.70;78.10;;;;;;4957842;28;20125;-60
2022/03/04 10:19:23;;;;;;;28.55;18.92;;;11.90;78.10;;;;;;4955289;28;20061;-59
2022/03/04 10:22:00;;;;;;;31.55;19.60;;;11.60;77.70;;;;;;4967870;28;20066;-60
2022/03/04 10:24:38;;;;;;;27.88;19.38;;;11.30;78.00;;;;;;4964412;28;20074;-60
2022/03/04 10:27:07;;;;;;;32.03;19.38;;;10.90;79.00;;;;;;4971192;28;20026;-60
2022/03/04 10:29:36;;;;;;;29.27;17.67;;;10.50;80.70;;;;;;4973117;28;20037;-60
2022/03/04 10:32:22;;;;;;;29.48;18.35;;;10.30;81.60;;;;;;4968323;28;20042;-60
2022/03/04 10:34:52;;;;;;;30.25;17.63;;;10.00;81.20;;;;;;4968828;28;20022;-60
2022/03/04 10:37:23;;;;;;;35.60;18.70;;;9.60;80.10;;;;;;4967112;28;20444;-60
2022/03/04 10:40:02;;;;;;;33.35;19.20;;;9.40;82.10;;;;;;4972980;28;20027;-60
2022/03/04 10:42:55;;;;;;;30.42;17.98;;;9.20;82.30;;;;;;4968694;28;20115;-60
2022/03/04 10:45:41;;;;;;;30.48;18.60;;;9.20;82.50;;;;;;4968161;28;20039;-60
2022/03/04 10:48:18;;;;;;;30.48;18.17;;;9.20;81.20;;;;;;4971381;28;20023;-60
2022/03/04 10:50:45;;;;;;;239.52;88.78;;;9.10;83.70;;;;;;4966026;28;20023;-60
2022/03/04 10:53:11;;;;;;;52.10;26.42;;;9.10;84.60;;;;;;4962784;28;20026;-59
2022/03/04 10:55:44;;;;;;;31.50;18.10;;;9.10;83.50;;;;;;4967871;28;20078;-60
2022/03/04 10:58:14;;;;;;;37.20;18.77;;;9.20;84.10;;;;;;4971743;28;20481;-59
2022/03/04 11:00:42;;;;;;;29.35;18.20;;;9.10;81.90;;;;;;4969996;28;20045;-60
2022/03/04 11:03:12;;;;;;;30.80;17.25;;;9.10;83.40;;;;;;4958115;28;20490;-60
2022/03/04 11:05:39;;;;;;;26.98;15.90;;;9.20;83.70;;;;;;4965831;28;20043;-60
2022/03/04 11:08:06;;;;;;;28.80;16.60;;;9.20;83.10;;;;;;4967276;28;20042;-60
2022/03/04 11:10:31;;;;;;;33.65;18.88;;;9.30;83.20;;;;;;4976238;28;20035;-59
2022/03/04 11:12:58;;;;;;;29.23;16.58;;;9.10;81.70;;;;;;4967722;28;20081;-60
2022/03/04 11:15:24;;;;;;;39.25;18.48;;;9.10;82.30;;;;;;4966507;28;20081;-60
2022/03/04 11:17:51;;;;;;;31.27;17.70;;;9.00;82.90;;;;;;4950555;28;20074;-59
2022/03/04 11:20:18;;;;;;;35.00;17.38;;;9.00;82.50;;;;;;4971722;28;20521;-60
2022/03/04 11:22:47;;;;;;;33.25;18.55;;;9.00;83.90;;;;;;4970750;28;20030;-60
2022/03/04 11:25:14;;;;;;;33.05;17.88;;;9.10;83.10;;;;;;4970823;28;20069;-60
2022/03/04 11:27:45;;;;;;;32.15;18.67;;;9.10;82.40;;;;;;4949745;28;20037;-59
2022/03/04 11:30:30;;;;;;;31.15;17.27;;;9.10;82.10;;;;;;5001793;28;20392;-60
2022/03/04 11:33:27;;;;;;;26.40;15.93;;;9.00;81.60;;;;;;4978330;28;20088;-60
2022/03/04 11:36:06;;;;;;;30.38;17.50;;;9.00;81.00;;;;;;4984679;28;20477;-61
2022/03/04 11:38:43;;;;;;;28.58;16.75;;;9.00;82.50;;;;;;4982746;28;20080;-60
2022/03/04 11:41:10;;;;;;;32.53;17.13;;;8.90;81.40;;;;;;4983418;28;20041;-60
2022/03/04 11:43:46;;;;;;;34.75;18.55;;;9.00;82.80;;;;;;4979955;28;20400;-60
2022/03/04 11:46:19;;;;;;;32.05;17.70;;;9.10;83.20;;;;;;4975950;28;20026;-60
2022/03/04 11:48:45;;;;;;;27.60;16.80;;;9.00;81.40;;;;;;4973155;28;20066;-59
2022/03/04 11:51:20;;;;;;;29.48;16.48;;;9.10;83.10;;;;;;4982777;28;20062;-59
2022/03/04 11:54:22;;;;;;;28.13;16.63;;;9.20;82.10;;;;;;4985050;28;20408;-60
2022/03/04 11:56:51;;;;;;;30.60;16.40;;;9.10;81.40;;;;;;4986959;28;20022;-60
2022/03/04 11:59:18;;;;;;;30.23;16.60;;;9.20;81.70;;;;;;4979048;28;20166;-60
2022/03/04 12:01:47;;;;;;;33.53;17.80;;;9.20;80.30;;;;;;4973892;28;20027;-59
2022/03/04 12:04:15;;;;;;;25.20;15.27;;;9.30;79.30;;;;;;4987183;28;20035;-59
2022/03/04 12:06:42;;;;;;;32.20;18.10;;;9.10;78.40;;;;;;4988047;28;20039;-60
2022/03/04 12:09:27;;;;;;;27.02;16.38;;;9.10;79.30;;;;;;4985212;28;20396;-60
2022/03/04 12:12:17;;;;;;;27.17;15.30;;;9.20;79.80;;;;;;4985004;28;20034;-59
2022/03/04 12:14:55;;;;;;;28.80;16.42;;;9.30;80.60;;;;;;4988301;28;20030;-60
2022/03/04 12:17:22;;;;;;;31.17;15.52;;;9.20;78.70;;;;;;4969444;28;20484;-59
2022/03/04 12:19:49;;;;;;;28.15;15.73;;;9.20;79.70;;;;;;4981439;28;20037;-60
2022/03/04 12:22:16;;;;;;;24.38;14.43;;;9.20;79.90;;;;;;4982385;28;20030;-60
2022/03/04 12:24:56;;;;;;;36.38;19.52;;;9.10;77.60;;;;;;4983864;28;20028;-59
2022/03/04 12:27:35;;;;;;;38.63;20.48;;;9.10;79.10;;;;;;4981063;28;20041;-60
2022/03/04 12:30:16;;;;;;;30.40;15.90;;;9.10;79.80;;;;;;4983303;28;20018;-58
2022/03/04 12:32:49;;;;;;;33.53;17.88;;;9.10;78.70;;;;;;4983676;28;20030;-60